Time;durP1;ratioP1;P1;durP2;ratioP2;P2;SDS_P1;SDS_P2;PMS_P1;PMS_P2;Temp;Humidity;BMP_temperature;BMP_pressure;BME280_temperature;BME280_humidity;BME280_pressure;Samples;Min_cycle;Max_cycle;Signal;HPM_P1;HPM_P2
2023/01/19 00:01:25;;;;;;;3.40;1.50;;;;;;;13.19;67.02;101911.25;5012385;28;20101;-65
2023/01/19 00:03:52;;;;;;;9.00;2.25;;;;;;;13.19;67.21;101913.09;5012535;28;20101;-65
2023/01/19 00:06:18;;;;;;;14.23;2.30;;;;;;;13.22;66.51;101911.94;5012757;28;20494;-65
2023/01/19 00:08:47;;;;;;;4.15;1.73;;;;;;;13.00;67.44;101911.13;5012449;28;20029;-65
2023/01/19 00:11:14;;;;;;;5.07;1.95;;;;;;;13.02;67.77;101907.19;5012526;28;20109;-65
2023/01/19 00:13:40;;;;;;;10.88;2.33;;;;;;;12.84;68.69;101913.06;5012371;28;20057;-65
2023/01/19 00:16:06;;;;;;;8.75;2.28;;;;;;;12.89;68.53;101916.00;5012176;28;20022;-65
2023/01/19 00:18:33;;;;;;;9.07;1.92;;;;;;;12.91;68.61;101913.94;5012549;28;20076;-66
2023/01/19 00:20:59;;;;;;;10.43;2.40;;;;;;;12.89;69.04;101920.56;5012542;28;20037;-66
2023/01/19 00:23:25;;;;;;;5.78;2.35;;;;;;;12.89;68.95;101905.25;5012439;28;20056;-65
2023/01/19 00:25:52;;;;;;;9.95;2.58;;;;;;;12.82;69.53;101907.03;5012296;28;20392;-65
2023/01/19 00:28:18;;;;;;;8.85;3.00;;;;;;;12.82;69.59;101909.72;5012246;28;20468;-65
2023/01/19 00:30:45;;;;;;;9.68;3.10;;;;;;;12.72;69.91;101920.00;5012350;28;20025;-66
2023/01/19 00:33:13;;;;;;;16.83;6.07;;;;;;;12.71;70.30;101929.06;5011971;28;20140;-65
2023/01/19 00:35:41;;;;;;;12.95;6.68;;;;;;;12.80;69.67;101925.22;5012214;28;20465;-66
2023/01/19 00:38:07;;;;;;;12.65;7.75;;;;;;;12.81;69.56;101918.81;5011853;28;20022;-66
2023/01/19 00:40:34;;;;;;;14.32;7.50;;;;;;;12.69;70.04;101910.47;5012023;28;20042;-66
2023/01/19 00:43:00;;;;;;;15.57;5.22;;;;;;;12.65;69.91;101917.25;5012085;28;20060;-66
2023/01/19 00:45:26;;;;;;;14.98;3.60;;;;;;;12.69;69.40;101926.56;5012086;28;20252;-66
2023/01/19 00:48:01;;;;;;;8.65;3.22;;;;;;;12.60;69.66;101916.16;4994217;28;20029;-66
2023/01/19 00:50:29;;;;;;;9.20;2.50;;;;;;;12.68;69.35;101910.66;5012067;28;20054;-66
2023/01/19 00:52:59;;;;;;;8.27;2.72;;;;;;;12.60;69.65;101908.97;5012243;28;20037;-66
2023/01/19 00:55:27;;;;;;;9.88;2.55;;;;;;;12.63;69.67;101905.88;5011896;28;20026;-66
2023/01/19 00:57:53;;;;;;;4.63;2.30;;;;;;;12.51;69.79;101911.97;5011838;28;20046;-66
2023/01/19 01:00:21;;;;;;;7.57;2.65;;;;;;;12.43;69.99;101911.03;5011898;28;20088;-65
2023/01/19 01:02:51;;;;;;;5.85;2.63;;;;;;;12.41;70.42;101921.16;5012080;28;20488;-66
2023/01/19 01:05:18;;;;;;;9.48;2.78;;;;;;;12.18;71.28;101917.81;5009588;28;20144;-65
2023/01/19 01:07:44;;;;;;;8.13;2.97;;;;;;;12.40;70.92;101916.00;4994234;28;20018;-69
2023/01/19 01:10:14;;;;;;;8.23;2.30;;;;;;;12.36;70.46;101915.53;5009547;28;20134;-66
2023/01/19 01:12:41;;;;;;;11.00;2.45;;;;;;;12.34;70.53;101909.53;5006826;28;20033;-65
2023/01/19 01:15:10;;;;;;;7.30;2.53;;;;;;;12.46;70.39;101909.03;5015443;28;20673;-64
2023/01/19 01:17:37;;;;;;;11.25;2.92;;;;;;;12.44;70.50;101911.91;5015315;28;20115;-67
2023/01/19 01:20:03;;;;;;;8.00;2.10;;;;;;;12.42;70.01;101909.38;5015232;28;20029;-67
2023/01/19 01:22:30;;;;;;;6.85;2.33;;;;;;;12.56;69.36;101904.16;5015574;28;20554;-65
2023/01/19 01:24:56;;;;;;;8.45;2.00;;;;;;;12.32;70.13;101900.81;5002469;28;20031;-66
2023/01/19 01:27:23;;;;;;;6.05;1.70;;;;;;;12.46;69.50;101890.22;5015186;28;20112;-66
2023/01/19 01:29:49;;;;;;;7.05;2.45;;;;;;;12.42;69.60;101895.13;5015193;28;20503;-67
2023/01/19 01:32:16;;;;;;;6.85;2.08;;;;;;;12.40;69.53;101887.28;5015101;28;20026;-65
2023/01/19 01:34:42;;;;;;;8.35;2.22;;;;;;;12.25;70.21;101891.03;5015272;28;20475;-65
2023/01/19 01:37:09;;;;;;;10.35;2.70;;;;;;;12.41;69.77;101899.69;5015376;28;20510;-64
2023/01/19 01:39:35;;;;;;;7.75;1.90;;;;;;;12.28;70.39;101894.19;5015041;28;20022;-65
2023/01/19 01:42:05;;;;;;;7.70;2.25;;;;;;;12.19;70.62;101881.91;5014975;28;20050;-65
2023/01/19 01:44:50;;;;;;;6.00;2.28;;;;;;;12.21;70.66;101877.16;5015251;28;20057;-64
2023/01/19 01:47:28;;;;;;;9.18;2.20;;;;;;;12.22;70.54;101876.16;5014797;28;20033;-64
2023/01/19 01:50:04;;;;;;;8.23;2.05;;;;;;;12.33;70.03;101875.66;5015047;28;20064;-65
2023/01/19 01:52:33;;;;;;;6.38;2.47;;;;;;;12.28;69.87;101867.34;5014933;28;20079;-64
2023/01/19 01:55:02;;;;;;;8.27;2.05;;;;;;;12.25;70.23;101877.63;5014826;28;20064;-64
2023/01/19 01:57:29;;;;;;;4.90;2.08;;;;;;;12.24;70.54;101879.47;5014426;28;20030;-64
2023/01/19 01:59:57;;;;;;;6.75;2.13;;;;;;;12.29;70.11;101863.63;5013266;28;20026;-65
2023/01/19 02:05:30;;;;;;;6.05;2.13;;;;;;;11.93;71.19;101844.06;5001889;28;20033;-67
2023/01/19 02:13:35;;;;;;;9.15;2.58;;;;;;;11.91;71.95;101838.88;5014705;28;20068;-66
2023/01/19 02:16:05;;;;;;;7.05;2.05;;;;;;;11.89;71.93;101843.63;5014317;28;20037;-67
2023/01/19 02:18:32;;;;;;;6.53;2.80;;;;;;;11.80;72.13;101856.28;5014233;28;20048;-68
2023/01/19 02:21:29;;;;;;;6.82;2.97;;;;;;;11.99;71.64;101843.28;5014628;28;20032;-68
2023/01/19 02:23:59;;;;;;;12.95;3.08;;;;;;;11.67;72.85;101842.72;5014609;28;20022;-68
2023/01/19 02:26:38;;;;;;;8.13;2.72;;;;;;;11.79;72.29;101830.47;5013982;28;20017;-68
2023/01/19 02:29:08;;;;;;;8.90;2.40;;;;;;;11.77;72.46;101835.22;5013854;28;20030;-69
2023/01/19 02:31:36;;;;;;;6.97;2.58;;;;;;;11.72;72.45;101834.13;5014159;28;20033;-67
2023/01/19 02:34:04;;;;;;;5.97;1.98;;;;;;;11.67;72.79;101837.38;5013631;28;20037;-70
2023/01/19 02:36:40;;;;;;;6.18;1.90;;;;;;;11.77;72.80;101835.22;5014077;28;20025;-70
2023/01/19 02:39:09;;;;;;;11.52;2.35;;;;;;;11.70;73.05;101836.13;5013870;28;20037;-70
2023/01/19 02:41:48;;;;;;;11.15;2.05;;;;;;;11.76;73.16;101827.34;5013913;28;20038;-69
2023/01/19 02:44:16;;;;;;;6.03;1.95;;;;;;;11.75;73.03;101836.41;5014199;28;20022;-69
2023/01/19 02:46:42;;;;;;;5.03;1.98;;;;;;;11.86;72.46;101827.91;5014130;28;20087;-70
2023/01/19 02:49:08;;;;;;;7.47;2.00;;;;;;;11.84;72.54;101829.94;5013703;28;20026;-68
2023/01/19 02:51:35;;;;;;;8.02;2.53;;;;;;;11.70;73.18;101831.59;5013719;28;20105;-69
2023/01/19 02:54:04;;;;;;;5.78;1.60;;;;;;;11.66;73.24;101833.03;5014018;28;20033;-70
2023/01/19 02:56:45;;;;;;;4.97;1.70;;;;;;;11.68;73.42;101812.19;5013852;28;20022;-69
2023/01/19 02:59:11;;;;;;;5.97;1.85;;;;;;;11.70;73.29;101817.38;5013610;28;20440;-68
2023/01/19 03:01:50;;;;;;;4.30;1.65;;;;;;;11.68;73.02;101817.56;5005256;28;20053;-68
2023/01/19 03:04:43;;;;;;;5.85;2.13;;;;;;;11.59;73.23;101821.38;5013362;28;20026;-68
2023/01/19 03:07:24;;;;;;;6.38;2.03;;;;;;;11.68;73.28;101825.59;4994012;28;20108;-68
2023/01/19 03:13:16;;;;;;;7.32;1.98;;;;;;;11.68;73.31;101819.41;5012169;28;20046;-68
2023/01/19 03:15:58;;;;;;;3.05;1.75;;;;;;;11.63;73.72;101814.63;5013407;28;20022;-67
2023/01/19 03:18:28;;;;;;;5.10;1.67;;;;;;;11.63;73.83;101811.94;5013077;28;20022;-67
2023/01/19 03:21:00;;;;;;;8.70;1.98;;;;;;;11.50;74.59;101809.13;5013522;28;20551;-68
2023/01/19 03:23:30;;;;;;;7.38;1.77;;;;;;;11.53;74.80;101806.03;4994416;28;20030;-68
2023/01/19 03:25:59;;;;;;;8.93;2.15;;;;;;;11.56;74.89;101806.50;4993826;28;20473;-68
2023/01/19 03:28:29;;;;;;;7.30;1.90;;;;;;;11.58;75.07;101809.00;4993148;28;20034;-68
2023/01/19 03:31:05;;;;;;;4.93;1.90;;;;;;;11.50;75.66;101811.78;4989832;28;20449;-68
2023/01/19 03:33:39;;;;;;;4.80;1.60;;;;;;;11.57;75.84;101812.69;4974403;28;20019;-68
2023/01/19 03:36:17;;;;;;;5.95;2.05;;;;;;;11.60;75.90;101799.75;4985159;28;20066;-68
2023/01/19 03:38:48;;;;;;;4.45;2.00;;;;;;;11.53;76.72;101796.16;4989274;28;20054;-68
2023/01/19 03:41:17;;;;;;;5.45;1.92;;;;;;;11.46;77.38;101792.56;4992394;28;20385;-68
2023/01/19 03:43:47;;;;;;;7.88;2.40;;;;;;;11.64;77.13;101790.28;4993388;28;20045;-68
2023/01/19 03:46:16;;;;;;;7.70;2.08;;;;;;;11.53;78.02;101787.28;4993399;28;20103;-68
2023/01/19 03:48:43;;;;;;;6.85;2.20;;;;;;;11.55;78.13;101791.44;4992760;28;20096;-68
2023/01/19 03:51:12;;;;;;;9.93;2.92;;;;;;;11.63;78.31;101791.31;4993070;28;20022;-68
2023/01/19 03:53:38;;;;;;;6.60;2.47;;;;;;;11.72;77.93;101788.53;4992944;28;20026;-68
2023/01/19 03:56:05;;;;;;;8.90;2.75;;;;;;;11.49;78.88;101784.16;4991252;28;20465;-68
2023/01/19 03:58:31;;;;;;;5.80;2.40;;;;;;;11.52;79.49;101785.63;4973393;28;20050;-68
2023/01/19 04:00:58;;;;;;;7.45;2.35;;;;;;;11.52;79.36;101789.13;4973502;28;20058;-68
2023/01/19 04:03:24;;;;;;;4.93;2.40;;;;;;;11.63;78.59;101783.28;4973756;28;20421;-68
2023/01/19 04:05:50;;;;;;;7.03;2.80;;;;;;;11.53;78.68;101781.91;4984837;28;20019;-68
2023/01/19 04:08:16;;;;;;;8.70;2.53;;;;;;;11.60;78.37;101780.97;4992350;28;20034;-68
2023/01/19 04:10:42;;;;;;;7.53;2.90;;;;;;;11.63;78.18;101787.81;4992472;28;20072;-67
2023/01/19 04:13:09;;;;;;;10.07;2.88;;;;;;;11.60;78.69;101780.13;4993191;28;20524;-68
2023/01/19 04:15:35;;;;;;;8.90;2.45;;;;;;;11.49;79.39;101780.63;4993078;28;20073;-68
2023/01/19 04:18:01;;;;;;;7.65;2.53;;;;;;;11.50;79.24;101775.09;4992404;28;20038;-68
2023/01/19 04:20:28;;;;;;;7.20;2.60;;;;;;;11.54;79.40;101780.88;4992766;28;20030;-68
2023/01/19 04:22:58;;;;;;;12.77;3.22;;;;;;;11.55;79.02;101767.31;4992605;28;20488;-68
2023/01/19 04:25:24;;;;;;;9.55;2.70;;;;;;;11.46;79.43;101772.97;4992770;28;20038;-68
2023/01/19 04:27:54;;;;;;;5.38;2.80;;;;;;;11.63;78.59;101777.91;4992087;28;20084;-68
2023/01/19 04:30:21;;;;;;;11.35;2.75;;;;;;;11.57;79.00;101777.84;4979781;28;20474;-68
2023/01/19 04:32:47;;;;;;;6.88;2.33;;;;;;;11.53;79.15;101763.13;4973017;28;20454;-68
2023/01/19 04:35:14;;;;;;;10.88;2.90;;;;;;;11.48;79.22;101761.03;4972973;28;20027;-68
2023/01/19 04:37:40;;;;;;;13.48;3.13;;;;;;;11.59;78.83;101763.22;4973121;28;20034;-68
2023/01/19 04:40:07;;;;;;;6.82;2.60;;;;;;;11.66;78.49;101755.25;4980211;28;20396;-68
2023/01/19 04:42:33;;;;;;;11.50;3.03;;;;;;;11.58;78.60;101763.41;4992643;28;20774;-68
2023/01/19 04:44:59;;;;;;;7.63;3.20;;;;;;;11.54;79.17;101754.06;4992150;28;20370;-68
2023/01/19 04:47:26;;;;;;;9.32;3.00;;;;;;;11.48;79.93;101752.16;4991970;28;20408;-68
2023/01/19 04:49:52;;;;;;;6.28;2.17;;;;;;;11.58;80.14;101755.38;4991676;28;20523;-68
2023/01/19 04:52:19;;;;;;;12.15;2.95;;;;;;;11.58;80.93;101763.41;4992203;28;20041;-68
2023/01/19 04:54:45;;;;;;;8.70;2.80;;;;;;;11.63;81.57;101764.50;4992224;28;20109;-69
2023/01/19 04:57:11;;;;;;;7.53;3.10;;;;;;;11.67;82.40;101767.63;4992239;28;20126;-68
2023/01/19 04:59:37;;;;;;;11.55;2.70;;;;;;;11.68;82.93;101766.63;4992264;28;20035;-67
2023/01/19 05:02:04;;;;;;;7.88;3.35;;;;;;;11.67;83.28;101764.13;4992030;28;20033;-67
2023/01/19 05:04:30;;;;;;;7.30;2.63;;;;;;;11.63;83.86;101756.44;4992005;28;20060;-67
2023/01/19 05:06:57;;;;;;;12.95;3.30;;;;;;;11.45;84.92;101756.06;4992067;28;20077;-66
2023/01/19 05:09:23;;;;;;;7.85;3.00;;;;;;;11.43;85.47;101754.56;4991887;28;20053;-67
2023/01/19 05:11:49;;;;;;;9.93;2.80;;;;;;;11.43;86.26;101752.72;4992068;28;20038;-67
2023/01/19 05:14:15;;;;;;;15.98;3.83;;;;;;;11.34;86.91;101759.22;4992149;28;20392;-67
2023/01/19 05:16:42;;;;;;;15.75;3.90;;;;;;;11.23;87.38;101755.19;4992105;28;20122;-66
2023/01/19 05:19:08;;;;;;;11.18;3.80;;;;;;;11.14;88.45;101758.97;4990336;28;20113;-66
2023/01/19 05:21:34;;;;;;;11.68;4.25;;;;;;;11.06;89.14;101754.56;4990738;28;20022;-65
2023/01/19 05:24:00;;;;;;;10.38;4.32;;;;;;;11.07;89.51;101747.34;4989565;28;20022;-65
2023/01/19 05:26:27;;;;;;;19.13;4.38;;;;;;;11.06;89.91;101751.06;4973439;28;20033;-65
2023/01/19 05:28:53;;;;;;;15.85;4.18;;;;;;;11.09;90.12;101769.41;4991573;28;20039;-64
2023/01/19 05:31:19;;;;;;;14.70;4.13;;;;;;;11.04;90.87;101788.72;4991777;28;20485;-63
2023/01/19 05:33:47;;;;;;;14.38;4.45;;;;;;;11.14;91.06;101823.28;4973242;28;20042;-65
2023/01/19 05:36:13;;;;;;;10.75;4.00;;;;;;;11.22;91.06;101809.81;4990819;28;20034;-66
2023/01/19 05:38:39;;;;;;;14.57;4.22;;;;;;;11.23;91.14;101848.97;4991236;28;20037;-64
2023/01/19 05:41:05;;;;;;;5.32;1.90;;;;;;;11.15;90.02;101862.47;4990805;28;20035;-66
2023/01/19 05:43:32;;;;;;;3.33;1.40;;;;;;;11.14;88.50;101858.13;4990878;28;20057;-66
2023/01/19 05:45:58;;;;;;;2.95;0.88;;;;;;;11.18;87.77;101855.91;4991265;28;20038;-65
2023/01/19 05:48:24;;;;;;;4.68;1.00;;;;;;;11.23;86.82;101864.22;4989990;28;20030;-65
2023/01/19 05:50:51;;;;;;;1.92;0.70;;;;;;;11.09;87.20;101853.31;4990282;28;20030;-65
2023/01/19 05:53:17;;;;;;;2.55;0.63;;;;;;;11.14;87.15;101852.75;4992545;28;20717;-65
2023/01/19 05:55:43;;;;;;;1.73;0.60;;;;;;;11.18;86.86;101851.38;4991282;28;20030;-66
2023/01/19 05:58:10;;;;;;;2.10;0.60;;;;;;;11.19;86.33;101852.22;4991228;28;20105;-66
2023/01/19 06:00:36;;;;;;;1.33;0.40;;;;;;;11.10;87.10;101848.78;4991393;28;20540;-66
2023/01/19 06:03:02;;;;;;;2.55;0.70;;;;;;;11.25;86.21;101841.56;4995228;28;20559;-66
2023/01/19 06:05:29;;;;;;;2.33;0.43;;;;;;;11.34;85.12;101851.19;4992920;28;20026;-66
2023/01/19 06:07:56;;;;;;;0.80;0.32;;;;;;;11.32;84.80;101858.56;4994974;28;20058;-65
2023/01/19 06:10:22;;;;;;;0.95;0.47;;;;;;;11.34;84.97;101847.69;4994952;28;20038;-65
2023/01/19 06:12:50;;;;;;;1.67;0.40;;;;;;;11.26;84.46;101845.09;4994928;28;20121;-64
2023/01/19 06:15:16;;;;;;;3.05;0.45;;;;;;;11.32;84.13;101847.84;4992949;28;20027;-64
2023/01/19 06:17:43;;;;;;;1.52;0.45;;;;;;;11.32;83.80;101847.03;4995117;28;20114;-67
2023/01/19 06:20:10;;;;;;;0.40;0.30;;;;;;;11.46;83.49;101848.03;4993138;28;20037;-67
2023/01/19 06:22:36;;;;;;;0.75;0.40;;;;;;;11.44;82.61;101852.72;4992627;28;20026;-65
2023/01/19 06:25:03;;;;;;;4.03;0.43;;;;;;;11.51;82.44;101867.91;4994795;28;20085;-67
2023/01/19 06:27:29;;;;;;;1.13;0.40;;;;;;;11.53;81.70;101862.34;4993994;28;20030;-67
2023/01/19 06:29:55;;;;;;;2.53;0.40;;;;;;;11.54;81.71;101874.72;4994238;28;20077;-67
2023/01/19 06:32:21;;;;;;;0.40;0.30;;;;;;;11.63;80.55;101876.28;4994619;28;20034;-67
2023/01/19 06:34:48;;;;;;;1.45;0.50;;;;;;;11.62;79.98;101874.63;4992855;28;20026;-65
2023/01/19 06:37:15;;;;;;;1.75;0.65;;;;;;;11.49;80.05;101880.69;4994483;28;20030;-66
2023/01/19 06:39:44;;;;;;;0.93;0.30;;;;;;;11.47;79.03;101885.38;4992634;28;20564;-66
2023/01/19 06:42:10;;;;;;;0.25;0.17;;;;;;;11.37;79.33;101877.59;4993457;28;20184;-66
2023/01/19 06:44:36;;;;;;;1.95;0.45;;;;;;;11.45;78.49;101889.28;4994459;28;20027;-66
2023/01/19 06:47:03;;;;;;;1.45;0.30;;;;;;;11.33;78.62;101891.59;4992301;28;20049;-66
2023/01/19 06:49:29;;;;;;;1.15;0.50;;;;;;;11.34;78.18;101888.72;4993454;28;20066;-66
2023/01/19 06:51:55;;;;;;;0.65;0.30;;;;;;;11.21;78.21;101906.44;4994343;28;20057;-67
2023/01/19 06:54:21;;;;;;;1.88;0.40;;;;;;;11.25;78.14;101905.91;4993353;28;20106;-66
2023/01/19 06:56:47;;;;;;;1.95;0.50;;;;;;;11.30;76.81;101902.66;4994084;28;20480;-67
2023/01/19 06:59:14;;;;;;;0.43;0.28;;;;;;;11.26;76.28;101899.50;4975973;28;20400;-66
2023/01/19 07:01:40;;;;;;;1.92;0.45;;;;;;;11.17;74.24;101907.84;4994233;28;20112;-66
2023/01/19 07:04:06;;;;;;;3.60;0.50;;;;;;;11.09;75.00;101916.78;4994656;28;20027;-66
2023/01/19 07:06:32;;;;;;;0.98;0.45;;;;;;;10.96;74.19;101916.59;4992493;28;20035;-67
2023/01/19 07:08:59;;;;;;;3.33;0.68;;;;;;;10.80;73.98;101915.72;4993886;28;20412;-66
2023/01/19 07:11:26;;;;;;;4.38;0.70;;;;;;;10.79;73.76;101922.09;4992158;28;20093;-67
2023/01/19 07:13:54;;;;;;;4.47;0.98;;;;;;;10.68;74.28;101913.66;4994218;28;20049;-66
2023/01/19 07:16:20;;;;;;;2.65;0.60;;;;;;;10.44;74.20;101920.06;4992814;28;20026;-67
2023/01/19 07:18:48;;;;;;;3.95;0.73;;;;;;;10.31;75.81;101928.66;4993668;28;20038;-66
2023/01/19 07:21:15;;;;;;;2.75;0.50;;;;;;;10.39;75.40;101930.47;4992229;28;20365;-67
2023/01/19 07:23:42;;;;;;;0.93;0.50;;;;;;;10.43;75.40;101937.09;4993645;28;20566;-66
2023/01/19 07:26:09;;;;;;;2.90;0.50;;;;;;;10.39;76.15;101930.47;4992643;28;20049;-67
2023/01/19 07:28:36;;;;;;;2.58;0.90;;;;;;;10.30;77.23;101927.81;4993485;28;20030;-67
2023/01/19 07:31:02;;;;;;;1.48;0.60;;;;;;;10.39;76.21;101933.13;4991682;28;20030;-67
2023/01/19 07:33:29;;;;;;;2.88;0.60;;;;;;;10.36;76.27;101947.69;4993441;28;20034;-67
2023/01/19 07:35:55;;;;;;;2.60;0.80;;;;;;;10.29;77.21;101942.22;4991661;28;20034;-67
2023/01/19 07:38:21;;;;;;;3.10;0.60;;;;;;;10.31;77.56;101953.56;4993332;28;20081;-67
2023/01/19 07:40:47;;;;;;;4.68;0.80;;;;;;;10.30;77.87;101949.22;4992749;28;20054;-67
2023/01/19 07:43:15;;;;;;;2.05;1.10;;;;;;;10.16;78.12;101939.28;4993558;28;20117;-67
2023/01/19 07:45:41;;;;;;;4.70;0.70;;;;;;;10.32;77.55;101951.72;4992581;28;20670;-67
2023/01/19 07:48:08;;;;;;;2.45;0.75;;;;;;;10.37;75.98;101946.69;4992972;28;20041;-67
2023/01/19 07:50:34;;;;;;;2.67;0.50;;;;;;;10.39;75.83;101941.16;4992232;28;20030;-67
2023/01/19 07:53:10;;;;;;;3.50;1.10;;;;;;;10.37;75.45;101940.50;4993084;28;20492;-66
2023/01/19 07:55:36;;;;;;;3.75;1.25;;;;;;;10.48;75.44;101940.09;4991697;28;20030;-67
2023/01/19 07:58:06;;;;;;;3.92;1.00;;;;;;;10.43;76.01;101951.31;4992521;28;20049;-67
2023/01/19 08:00:34;;;;;;;2.42;0.70;;;;;;;10.52;75.87;101941.41;4991061;28;20030;-67
2023/01/19 08:03:01;;;;;;;2.03;0.80;;;;;;;10.43;76.32;101943.28;4992997;28;20034;-67
2023/01/19 08:05:28;;;;;;;5.80;1.02;;;;;;;10.59;75.79;101947.69;4992091;28;20485;-67
2023/01/19 08:07:59;;;;;;;4.63;1.10;;;;;;;10.57;75.36;101944.38;4992674;28;20031;-67
2023/01/19 08:10:27;;;;;;;5.55;1.48;;;;;;;10.49;75.68;101936.38;4992039;28;20512;-67
2023/01/19 08:12:54;;;;;;;4.85;1.77;;;;;;;10.46;75.90;101942.94;4992713;28;20042;-67
2023/01/19 08:15:22;;;;;;;5.03;1.45;;;;;;;10.51;75.66;101945.09;4991873;28;20093;-67
2023/01/19 08:17:57;;;;;;;4.90;1.40;;;;;;;10.55;75.10;101943.72;4990789;28;20033;-67
2023/01/19 08:20:24;;;;;;;3.93;1.33;;;;;;;10.43;75.46;101947.81;4992615;28;20485;-67
2023/01/19 08:22:58;;;;;;;5.85;1.10;;;;;;;10.47;75.63;101949.13;4991457;28;20122;-67
2023/01/19 08:25:36;;;;;;;3.42;0.95;;;;;;;10.45;75.57;101952.00;4992774;28;20362;-67
2023/01/19 08:28:05;;;;;;;4.38;0.82;;;;;;;10.37;75.61;101949.34;4990516;28;20045;-67
2023/01/19 08:30:32;;;;;;;8.90;1.10;;;;;;;10.28;75.52;101951.25;4992289;28;20047;-67
2023/01/19 08:33:06;;;;;;;2.25;1.02;;;;;;;10.20;75.78;101948.59;4991146;28;20473;-68
2023/01/19 08:35:39;;;;;;;3.25;0.98;;;;;;;10.21;75.33;101944.91;4992688;28;20030;-67
2023/01/19 08:38:07;;;;;;;5.65;1.10;;;;;;;10.24;74.49;101941.09;4990852;28;20496;-67
2023/01/19 08:40:36;;;;;;;4.72;0.90;;;;;;;10.04;74.74;101956.72;4992462;28;20030;-67
2023/01/19 08:43:07;;;;;;;4.03;0.82;;;;;;;10.10;73.57;101961.34;4990343;28;20028;-67
2023/01/19 08:45:35;;;;;;;3.08;1.27;;;;;;;9.83;74.11;101964.50;4991157;28;20027;-67
2023/01/19 08:48:02;;;;;;;1.65;0.75;;;;;;;9.53;68.22;101966.94;4989823;28;20719;-67
2023/01/19 08:50:29;;;;;;;2.67;0.65;;;;;;;9.16;70.25;101971.03;4992292;28;20034;-67
2023/01/19 08:52:57;;;;;;;4.32;1.15;;;;;;;9.08;72.08;101975.53;4991394;28;20033;-68
2023/01/19 08:55:24;;;;;;;6.82;1.20;;;;;;;9.24;70.05;101970.19;4992235;28;20401;-67
2023/01/19 08:57:55;;;;;;;3.63;0.70;;;;;;;9.06;71.24;101975.72;4990809;28;20048;-68
2023/01/19 09:00:23;;;;;;;3.38;0.90;;;;;;;9.10;71.91;101981.53;4982493;28;20022;-67
2023/01/19 09:02:53;;;;;;;4.60;0.75;;;;;;;9.12;71.00;101979.56;4972746;28;20037;-68
2023/01/19 09:05:19;;;;;;;1.73;1.00;;;;;;;8.82;73.78;101989.06;4991773;28;20014;-68
2023/01/19 09:07:47;;;;;;;3.58;0.85;;;;;;;9.00;71.24;101995.09;4991972;28;20362;-68
2023/01/19 09:10:14;;;;;;;1.55;0.70;;;;;;;8.63;74.47;101990.22;4990993;28;20054;-68
2023/01/19 09:12:42;;;;;;;3.85;0.90;;;;;;;8.84;73.28;102003.09;4998833;28;20086;-68
2023/01/19 09:15:09;;;;;;;2.00;0.70;;;;;;;8.65;73.68;101996.22;4991829;28;20050;-68
2023/01/19 09:17:36;;;;;;;3.25;0.85;;;;;;;8.75;73.97;102004.09;4990320;28;20026;-67
2023/01/19 09:20:03;;;;;;;2.28;0.70;;;;;;;8.61;74.30;102003.75;4992328;28;20025;-67
2023/01/19 09:22:29;;;;;;;2.50;0.57;;;;;;;8.54;74.70;102001.88;4990660;28;20128;-68
2023/01/19 09:24:55;;;;;;;2.08;0.60;;;;;;;8.60;74.98;102011.88;4992010;28;20035;-68
2023/01/19 09:27:21;;;;;;;4.72;1.15;;;;;;;8.46;75.64;102008.03;5014379;23;20522;-68
2023/01/19 09:29:51;;;;;;;1.23;0.77;;;;;;;8.22;73.71;102019.47;5031238;28;20037;-67
2023/01/19 09:32:18;;;;;;;2.90;1.00;;;;;;;8.42;74.41;102004.03;5029703;28;20021;-68
2023/01/19 09:34:45;;;;;;;5.28;1.23;;;;;;;8.60;73.89;102011.88;5032613;28;20033;-68
2023/01/19 09:37:12;;;;;;;3.40;0.82;;;;;;;8.37;74.46;102011.69;5033257;28;20113;-68
2023/01/19 09:39:38;;;;;;;1.52;0.70;;;;;;;8.33;74.67;102008.50;5034841;28;20057;-68
2023/01/19 09:42:41;;;;;;;4.28;0.60;;;;;;;8.32;74.61;102013.97;5033479;28;20116;-68
2023/01/19 09:45:18;;;;;;;3.38;0.75;;;;;;;8.20;74.93;102011.59;5027724;28;20064;-68
2023/01/19 09:47:48;;;;;;;2.38;0.70;;;;;;;8.40;74.32;102011.38;5034489;28;20112;-68
2023/01/19 09:50:30;;;;;;;2.40;0.70;;;;;;;8.20;75.07;102013.44;5032447;28;20071;-68
2023/01/19 09:53:06;;;;;;;1.60;0.70;;;;;;;8.08;75.43;102014.72;5015238;28;20053;-68
2023/01/19 09:55:33;;;;;;;2.78;0.90;;;;;;;8.18;74.90;102020.78;5021448;28;20040;-68
2023/01/19 09:57:59;;;;;;;1.02;0.60;;;;;;;8.10;74.91;102024.22;5034126;28;20037;-68
2023/01/19 10:00:27;;;;;;;1.98;0.60;;;;;;;7.89;75.78;102023.81;5032616;28;20029;-68
2023/01/19 10:03:13;;;;;;;1.58;0.75;;;;;;;7.85;75.88;102033.97;5034479;28;20072;-68
2023/01/19 10:05:44;;;;;;;3.33;1.13;;;;;;;7.33;79.15;102033.16;5032666;28;20033;-67
2023/01/19 10:08:13;;;;;;;3.20;0.68;;;;;;;7.47;77.95;102035.22;5034048;28;20022;-68
2023/01/19 10:10:44;;;;;;;3.70;1.20;;;;;;;7.33;78.61;102046.47;5033092;28;20613;-68
2023/01/19 10:13:29;;;;;;;4.28;1.00;;;;;;;7.33;78.88;102043.81;5016685;28;20335;-68
2023/01/19 10:16:20;;;;;;;4.90;0.85;;;;;;;7.33;79.40;102047.28;5033162;28;20037;-67
2023/01/19 10:18:50;;;;;;;2.03;0.77;;;;;;;7.39;79.14;102053.84;5034192;28;20033;-67
2023/01/19 10:21:37;;;;;;;4.10;0.80;;;;;;;7.31;79.48;102046.59;5032750;28;20112;-68
2023/01/19 10:24:41;;;;;;;3.40;1.13;;;;;;;7.17;80.23;102044.50;5034109;28;20030;-68
2023/01/19 10:27:16;;;;;;;1.88;0.70;;;;;;;7.09;80.61;102053.25;4895148;29;20049;-68
2023/01/19 10:29:44;;;;;;;2.35;0.80;;;;;;;7.23;79.39;102061.69;4980832;28;20444;-68
2023/01/19 10:32:18;;;;;;;1.92;0.80;;;;;;;7.15;79.38;102063.28;5010145;28;20487;-67
2023/01/19 10:34:45;;;;;;;2.90;0.90;;;;;;;6.95;80.23;102060.94;5014356;28;20117;-68
2023/01/19 10:37:26;;;;;;;2.97;1.02;;;;;;;6.82;80.54;102056.81;5009238;28;20109;-68
2023/01/19 10:40:12;;;;;;;2.17;0.65;;;;;;;7.18;79.39;102072.81;5014220;28;20029;-68
2023/01/19 10:42:40;;;;;;;1.75;0.70;;;;;;;7.03;79.57;102064.50;5013135;28;20161;-68
2023/01/19 10:45:30;;;;;;;3.83;0.82;;;;;;;7.00;79.33;102066.66;5014305;28;20116;-68
2023/01/19 10:48:05;;;;;;;1.17;0.60;;;;;;;6.99;79.47;102068.47;4993309;28;20027;-68
2023/01/19 10:50:33;;;;;;;;;;;;;;;6.81;80.05;102071.13;4995078;28;20081;-68
2023/01/19 10:53:04;;;;;;;1.90;0.70;;;;;;;6.79;79.86;102067.78;5010414;28;19964;-68
2023/01/19 10:55:39;;;;;;;3.42;0.77;;;;;;;6.72;80.35;102065.84;5012881;28;20503;-68
2023/01/19 10:58:25;;;;;;;2.20;0.70;;;;;;;6.81;79.86;102064.97;5013468;28;20092;-68
2023/01/19 11:00:51;;;;;;;2.70;0.93;;;;;;;6.73;80.37;102063.06;5012326;28;20022;-68
2023/01/19 11:03:28;;;;;;;2.75;0.95;;;;;;;6.73;79.85;102059.56;5013892;28;20026;-68
2023/01/19 11:06:16;;;;;;;2.00;0.77;;;;;;;6.78;79.61;102054.63;5011235;28;20033;-68
2023/01/19 11:08:44;;;;;;;3.80;1.10;;;;;;;6.68;79.68;102053.88;4993717;28;20071;-68
2023/01/19 11:11:11;;;;;;;2.47;0.65;;;;;;;6.67;79.87;102050.38;4996617;28;20388;-68
2023/01/19 11:13:42;;;;;;;2.60;0.90;;;;;;;6.59;79.38;102052.94;5013812;28;20030;-68
2023/01/19 11:16:29;;;;;;;2.08;0.90;;;;;;;6.49;79.50;102060.97;5012098;28;20038;-68
2023/01/19 11:18:57;;;;;;;5.50;1.25;;;;;;;6.47;79.54;102057.63;5010366;28;20076;-68
2023/01/19 11:21:27;;;;;;;5.30;0.80;;;;;;;6.39;79.61;102049.56;5011702;28;20033;-69
2023/01/19 11:23:56;;;;;;;2.60;0.80;;;;;;;6.38;79.82;102049.69;5013518;28;20421;-68
2023/01/19 11:26:34;;;;;;;2.17;0.55;;;;;;;6.33;79.82;102052.81;5013024;28;20026;-68
2023/01/19 11:29:02;;;;;;;5.70;0.85;;;;;;;6.29;80.26;102044.31;5013123;28;20033;-68
2023/01/19 11:31:33;;;;;;;2.53;0.93;;;;;;;6.42;79.64;102049.25;5012105;28;20030;-68
2023/01/19 11:34:02;;;;;;;3.60;0.70;;;;;;;6.22;79.66;102053.00;5009530;28;20030;-68
2023/01/19 11:36:35;;;;;;;4.53;0.80;;;;;;;6.12;79.87;102053.06;5011343;28;20034;-68
2023/01/19 11:39:22;;;;;;;5.80;0.70;;;;;;;6.12;80.04;102047.75;5012908;28;20037;-68
2023/01/19 11:41:56;;;;;;;1.77;0.80;;;;;;;6.04;80.06;102053.78;5006587;28;20096;-69
2023/01/19 11:44:41;;;;;;;2.60;0.80;;;;;;;5.99;80.58;102041.91;5012928;28;20053;-68
2023/01/19 11:47:42;;;;;;;2.45;1.00;;;;;;;5.86;81.13;102047.53;5011731;28;20112;-68
2023/01/19 11:50:24;;;;;;;1.55;0.63;;;;;;;5.91;81.02;102045.31;5007790;28;20048;-69